sensor_id;sensor_type;location;lat;lon;timestamp;temperature;humidity
33815;DHT22;20121;51.910;8.406;2023-04-20T00:01:40;8.50;79.70
33815;DHT22;20121;51.910;8.406;2023-04-20T00:04:06;8.50;80.70
33815;DHT22;20121;51.910;8.406;2023-04-20T00:06:32;8.50;80.70
33815;DHT22;20121;51.910;8.406;2023-04-20T00:08:59;8.30;88.80
33815;DHT22;20121;51.910;8.406;2023-04-20T00:11:26;8.50;81.40
33815;DHT22;20121;51.910;8.406;2023-04-20T00:13:52;8.50;82.10
33815;DHT22;20121;51.910;8.406;2023-04-20T00:16:18;8.50;82.40
33815;DHT22;20121;51.910;8.406;2023-04-20T00:18:45;8.50;83.00
33815;DHT22;20121;51.910;8.406;2023-04-20T00:21:11;8.50;83.20
33815;DHT22;20121;51.910;8.406;2023-04-20T00:23:36;8.50;84.30
33815;DHT22;20121;51.910;8.406;2023-04-20T00:26:02;8.50;84.50
33815;DHT22;20121;51.910;8.406;2023-04-20T00:28:28;8.40;84.70
33815;DHT22;20121;51.910;8.406;2023-04-20T00:30:54;8.40;84.90
33815;DHT22;20121;51.910;8.406;2023-04-20T00:33:20;8.40;85.70
33815;DHT22;20121;51.910;8.406;2023-04-20T00:35:45;8.40;85.80
33815;DHT22;20121;51.910;8.406;2023-04-20T00:38:11;8.40;86.30
33815;DHT22;20121;51.910;8.406;2023-04-20T00:40:37;8.40;86.40
33815;DHT22;20121;51.910;8.406;2023-04-20T00:43:12;8.50;96.20
33815;DHT22;20121;51.910;8.406;2023-04-20T00:45:38;8.40;87.30
33815;DHT22;20121;51.910;8.406;2023-04-20T00:48:04;8.40;87.70
33815;DHT22;20121;51.910;8.406;2023-04-20T00:50:30;8.40;88.30
33815;DHT22;20121;51.910;8.406;2023-04-20T00:52:56;8.40;88.90
33815;DHT22;20121;51.910;8.406;2023-04-20T00:55:22;8.30;89.50
33815;DHT22;20121;51.910;8.406;2023-04-20T00:57:48;8.40;90.10
33815;DHT22;20121;51.910;8.406;2023-04-20T01:02:40;8.30;90.10
33815;DHT22;20121;51.910;8.406;2023-04-20T01:05:06;8.30;90.70
33815;DHT22;20121;51.910;8.406;2023-04-20T01:07:32;8.30;91.10
33815;DHT22;20121;51.910;8.406;2023-04-20T01:09:58;8.30;91.20
33815;DHT22;20121;51.910;8.406;2023-04-20T01:12:24;8.30;99.20
33815;DHT22;20121;51.910;8.406;2023-04-20T01:14:50;8.20;91.50
33815;DHT22;20121;51.910;8.406;2023-04-20T01:17:16;8.20;91.90
33815;DHT22;20121;51.910;8.406;2023-04-20T01:19:41;8.20;92.70
33815;DHT22;20121;51.910;8.406;2023-04-20T01:22:16;8.20;93.10
33815;DHT22;20121;51.910;8.406;2023-04-20T01:24:42;8.20;93.50
33815;DHT22;20121;51.910;8.406;2023-04-20T01:27:08;8.30;93.90
33815;DHT22;20121;51.910;8.406;2023-04-20T01:29:34;8.20;99.90
33815;DHT22;20121;51.910;8.406;2023-04-20T01:32:00;8.20;95.30
33815;DHT22;20121;51.910;8.406;2023-04-20T01:34:26;8.10;96.00
33815;DHT22;20121;51.910;8.406;2023-04-20T01:36:51;8.00;96.60
33815;DHT22;20121;51.910;8.406;2023-04-20T01:39:17;8.00;99.90
33815;DHT22;20121;51.910;8.406;2023-04-20T01:41:43;7.90;97.90
33815;DHT22;20121;51.910;8.406;2023-04-20T01:44:08;7.90;98.10
33815;DHT22;20121;51.910;8.406;2023-04-20T01:46:38;7.90;98.50
33815;DHT22;20121;51.910;8.406;2023-04-20T01:49:04;7.80;98.70
33815;DHT22;20121;51.910;8.406;2023-04-20T01:51:31;7.70;99.10
33815;DHT22;20121;51.910;8.406;2023-04-20T01:53:57;7.90;99.90
33815;DHT22;20121;51.910;8.406;2023-04-20T01:56:23;7.60;99.80
33815;DHT22;20121;51.910;8.406;2023-04-20T01:58:49;7.60;99.90
33815;DHT22;20121;51.910;8.406;2023-04-20T02:01:15;7.50;99.90
33815;DHT22;20121;51.910;8.406;2023-04-20T02:03:40;7.50;99.90
33815;DHT22;20121;51.910;8.406;2023-04-20T02:06:06;7.50;99.90
33815;DHT22;20121;51.910;8.406;2023-04-20T02:08:32;7.50;99.90
33815;DHT22;20121;51.910;8.406;2023-04-20T02:10:58;7.40;99.90
33815;DHT22;20121;51.910;8.406;2023-04-20T02:13:23;7.40;99.90
33815;DHT22;20121;51.910;8.406;2023-04-20T02:15:49;7.40;99.90
33815;DHT22;20121;51.910;8.406;2023-04-20T02:18:15;7.50;99.90
33815;DHT22;20121;51.910;8.406;2023-04-20T02:20:42;7.40;99.90
33815;DHT22;20121;51.910;8.406;2023-04-20T02:23:08;7.40;99.90
33815;DHT22;20121;51.910;8.406;2023-04-20T02:25:33;7.00;99.90
33815;DHT22;20121;51.910;8.406;2023-04-20T02:27:59;7.30;99.90
33815;DHT22;20121;51.910;8.406;2023-04-20T02:30:25;7.20;99.90
33815;DHT22;20121;51.910;8.406;2023-04-20T02:32:51;7.40;99.90
33815;DHT22;20121;51.910;8.406;2023-04-20T02:35:17;7.20;99.90
33815;DHT22;20121;51.910;8.406;2023-04-20T02:37:43;7.20;99.90
33815;DHT22;20121;51.910;8.406;2023-04-20T02:40:09;7.20;99.90
33815;DHT22;20121;51.910;8.406;2023-04-20T02:42:35;7.10;99.90
33815;DHT22;20121;51.910;8.406;2023-04-20T02:45:01;7.10;99.90
33815;DHT22;20121;51.910;8.406;2023-04-20T02:47:26;7.10;99.90
33815;DHT22;20121;51.910;8.406;2023-04-20T02:49:52;7.00;99.90
33815;DHT22;20121;51.910;8.406;2023-04-20T02:52:17;6.70;99.90
33815;DHT22;20121;51.910;8.406;2023-04-20T02:54:43;7.00;99.90
33815;DHT22;20121;51.910;8.406;2023-04-20T02:57:09;6.90;99.90
33815;DHT22;20121;51.910;8.406;2023-04-20T02:59:36;6.90;99.90
33815;DHT22;20121;51.910;8.406;2023-04-20T03:02:02;6.90;99.90
33815;DHT22;20121;51.910;8.406;2023-04-20T03:04:28;6.90;99.90
33815;DHT22;20121;51.910;8.406;2023-04-20T03:06:55;6.00;99.90
33815;DHT22;20121;51.910;8.406;2023-04-20T03:09:22;6.80;99.90
33815;DHT22;20121;51.910;8.406;2023-04-20T03:11:48;6.80;99.90
33815;DHT22;20121;51.910;8.406;2023-04-20T03:14:14;6.80;99.90
33815;DHT22;20121;51.910;8.406;2023-04-20T03:16:40;6.80;99.90
33815;DHT22;20121;51.910;8.406;2023-04-20T03:19:06;6.80;99.90
33815;DHT22;20121;51.910;8.406;2023-04-20T03:21:32;6.80;99.90
33815;DHT22;20121;51.910;8.406;2023-04-20T03:23:58;6.80;99.90
33815;DHT22;20121;51.910;8.406;2023-04-20T03:26:24;6.80;99.90
33815;DHT22;20121;51.910;8.406;2023-04-20T03:28:50;6.70;99.90
33815;DHT22;20121;51.910;8.406;2023-04-20T03:31:15;6.70;99.90
33815;DHT22;20121;51.910;8.406;2023-04-20T03:33:41;6.70;99.90
33815;DHT22;20121;51.910;8.406;2023-04-20T03:36:07;6.70;99.90
33815;DHT22;20121;51.910;8.406;2023-04-20T03:38:33;6.70;99.90
33815;DHT22;20121;51.910;8.406;2023-04-20T03:40:59;6.70;99.90
33815;DHT22;20121;51.910;8.406;2023-04-20T03:43:25;6.70;99.90
33815;DHT22;20121;51.910;8.406;2023-04-20T03:45:50;6.70;99.90
33815;DHT22;20121;51.910;8.406;2023-04-20T03:48:16;6.70;99.90
33815;DHT22;20121;51.910;8.406;2023-04-20T03:50:42;6.70;99.90
33815;DHT22;20121;51.910;8.406;2023-04-20T03:55:34;6.60;99.90
33815;DHT22;20121;51.910;8.406;2023-04-20T04:00:25;6.60;99.90
33815;DHT22;20121;51.910;8.406;2023-04-20T04:02:51;6.80;99.90
33815;DHT22;20121;51.910;8.406;2023-04-20T04:05:17;6.60;99.90
33815;DHT22;20121;51.910;8.406;2023-04-20T04:07:42;6.60;99.90
33815;DHT22;20121;51.910;8.406;2023-04-20T04:10:08;6.60;99.90
33815;DHT22;20121;51.910;8.406;2023-04-20T04:12:34;6.60;99.90
33815;DHT22;20121;51.910;8.406;2023-04-20T04:15:00;5.70;99.90
33815;DHT22;20121;51.910;8.406;2023-04-20T04:17:26;6.60;99.90
33815;DHT22;20121;51.910;8.406;2023-04-20T04:19:51;6.80;99.90
33815;DHT22;20121;51.910;8.406;2023-04-20T04:22:17;6.40;99.90
33815;DHT22;20121;51.910;8.406;2023-04-20T04:24:43;6.40;99.90
33815;DHT22;20121;51.910;8.406;2023-04-20T04:27:08;6.30;99.90
33815;DHT22;20121;51.910;8.406;2023-04-20T04:29:35;6.30;99.90
33815;DHT22;20121;51.910;8.406;2023-04-20T04:32:03;6.30;99.90
33815;DHT22;20121;51.910;8.406;2023-04-20T04:34:30;6.50;99.90
33815;DHT22;20121;51.910;8.406;2023-04-20T04:36:58;6.30;99.90
33815;DHT22;20121;51.910;8.406;2023-04-20T04:39:25;6.30;99.90
33815;DHT22;20121;51.910;8.406;2023-04-20T04:41:51;6.20;99.90
33815;DHT22;20121;51.910;8.406;2023-04-20T04:46:42;6.30;99.90
33815;DHT22;20121;51.910;8.406;2023-04-20T04:51:36;6.80;99.90
33815;DHT22;20121;51.910;8.406;2023-04-20T04:54:02;6.10;99.90
33815;DHT22;20121;51.910;8.406;2023-04-20T04:56:27;6.30;99.90
33815;DHT22;20121;51.910;8.406;2023-04-20T04:58:53;6.10;99.90
33815;DHT22;20121;51.910;8.406;2023-04-20T05:01:19;6.10;99.90
33815;DHT22;20121;51.910;8.406;2023-04-20T05:03:45;5.80;99.90
33815;DHT22;20121;51.910;8.406;2023-04-20T05:06:11;6.10;99.90
33815;DHT22;20121;51.910;8.406;2023-04-20T05:08:37;6.30;99.90
33815;DHT22;20121;51.910;8.406;2023-04-20T05:11:02;6.30;99.90
33815;DHT22;20121;51.910;8.406;2023-04-20T05:13:28;6.20;99.90
33815;DHT22;20121;51.910;8.406;2023-04-20T05:15:53;6.30;99.90
33815;DHT22;20121;51.910;8.406;2023-04-20T05:18:19;6.20;99.90
33815;DHT22;20121;51.910;8.406;2023-04-20T05:20:45;6.20;99.90
33815;DHT22;20121;51.910;8.406;2023-04-20T05:23:10;6.20;99.90
33815;DHT22;20121;51.910;8.406;2023-04-20T05:25:36;6.20;99.90
33815;DHT22;20121;51.910;8.406;2023-04-20T05:28:02;6.10;99.90
33815;DHT22;20121;51.910;8.406;2023-04-20T05:30:28;6.20;99.90
33815;DHT22;20121;51.910;8.406;2023-04-20T05:32:53;6.20;99.90
33815;DHT22;20121;51.910;8.406;2023-04-20T05:35:19;6.10;99.90
33815;DHT22;20121;51.910;8.406;2023-04-20T05:37:46;6.10;99.90
33815;DHT22;20121;51.910;8.406;2023-04-20T05:40:12;6.10;99.90
33815;DHT22;20121;51.910;8.406;2023-04-20T05:42:37;6.10;99.90
33815;DHT22;20121;51.910;8.406;2023-04-20T05:45:04;6.10;99.90
33815;DHT22;20121;51.910;8.406;2023-04-20T05:47:29;6.20;99.90
33815;DHT22;20121;51.910;8.406;2023-04-20T05:49:56;5.80;99.90
33815;DHT22;20121;51.910;8.406;2023-04-20T05:52:21;6.20;99.90
33815;DHT22;20121;51.910;8.406;2023-04-20T05:54:47;5.70;99.90
33815;DHT22;20121;51.910;8.406;2023-04-20T05:57:14;6.20;99.90
33815;DHT22;20121;51.910;8.406;2023-04-20T05:59:40;6.20;99.90
33815;DHT22;20121;51.910;8.406;2023-04-20T06:02:06;6.20;99.90
33815;DHT22;20121;51.910;8.406;2023-04-20T06:04:31;5.60;99.90
33815;DHT22;20121;51.910;8.406;2023-04-20T06:06:57;6.50;99.90
33815;DHT22;20121;51.910;8.406;2023-04-20T06:09:24;6.10;99.90
33815;DHT22;20121;51.910;8.406;2023-04-20T06:11:50;6.00;99.90
33815;DHT22;20121;51.910;8.406;2023-04-20T06:14:16;6.30;99.90
33815;DHT22;20121;51.910;8.406;2023-04-20T06:16:41;6.70;99.90
33815;DHT22;20121;51.910;8.406;2023-04-20T06:19:07;6.30;99.90
33815;DHT22;20121;51.910;8.406;2023-04-20T06:21:33;6.30;99.90
33815;DHT22;20121;51.910;8.406;2023-04-20T06:23:59;6.20;99.90
33815;DHT22;20121;51.910;8.406;2023-04-20T06:26:25;6.30;99.90
33815;DHT22;20121;51.910;8.406;2023-04-20T06:28:51;6.30;99.90
33815;DHT22;20121;51.910;8.406;2023-04-20T06:31:18;6.30;99.90
33815;DHT22;20121;51.910;8.406;2023-04-20T06:33:44;6.40;99.90
33815;DHT22;20121;51.910;8.406;2023-04-20T06:36:09;6.40;99.90
33815;DHT22;20121;51.910;8.406;2023-04-20T06:38:35;6.50;99.90
33815;DHT22;20121;51.910;8.406;2023-04-20T06:41:01;6.50;99.90
33815;DHT22;20121;51.910;8.406;2023-04-20T06:43:28;6.90;99.90
33815;DHT22;20121;51.910;8.406;2023-04-20T06:45:53;6.60;99.90
33815;DHT22;20121;51.910;8.406;2023-04-20T06:48:19;6.70;99.90
33815;DHT22;20121;51.910;8.406;2023-04-20T06:50:51;6.70;99.90
33815;DHT22;20121;51.910;8.406;2023-04-20T06:53:16;6.80;99.90
33815;DHT22;20121;51.910;8.406;2023-04-20T06:55:42;6.80;99.90
33815;DHT22;20121;51.910;8.406;2023-04-20T06:58:08;6.80;99.90
33815;DHT22;20121;51.910;8.406;2023-04-20T07:00:33;6.90;99.90
33815;DHT22;20121;51.910;8.406;2023-04-20T07:02:59;6.90;99.90
33815;DHT22;20121;51.910;8.406;2023-04-20T07:05:24;6.90;99.90
33815;DHT22;20121;51.910;8.406;2023-04-20T07:07:53;6.90;99.90
33815;DHT22;20121;51.910;8.406;2023-04-20T07:10:19;6.90;99.90
33815;DHT22;20121;51.910;8.406;2023-04-20T07:12:45;6.90;99.90
33815;DHT22;20121;51.910;8.406;2023-04-20T07:15:11;6.80;99.90
33815;DHT22;20121;51.910;8.406;2023-04-20T07:17:36;6.90;99.90
33815;DHT22;20121;51.910;8.406;2023-04-20T07:20:02;6.80;99.90
33815;DHT22;20121;51.910;8.406;2023-04-20T07:22:33;6.80;99.90
33815;DHT22;20121;51.910;8.406;2023-04-20T07:25:04;6.80;99.90
33815;DHT22;20121;51.910;8.406;2023-04-20T07:27:33;6.90;99.90
33815;DHT22;20121;51.910;8.406;2023-04-20T07:29:59;6.90;99.90
33815;DHT22;20121;51.910;8.406;2023-04-20T07:32:25;7.00;99.90
33815;DHT22;20121;51.910;8.406;2023-04-20T07:34:50;7.00;99.90
33815;DHT22;20121;51.910;8.406;2023-04-20T07:37:16;7.00;99.90
33815;DHT22;20121;51.910;8.406;2023-04-20T07:39:42;7.10;99.90
33815;DHT22;20121;51.910;8.406;2023-04-20T07:42:07;7.00;99.90
33815;DHT22;20121;51.910;8.406;2023-04-20T07:44:33;7.10;99.90
33815;DHT22;20121;51.910;8.406;2023-04-20T07:47:00;6.90;99.90
33815;DHT22;20121;51.910;8.406;2023-04-20T07:49:26;6.90;99.90
33815;DHT22;20121;51.910;8.406;2023-04-20T07:51:51;7.20;99.90
33815;DHT22;20121;51.910;8.406;2023-04-20T07:54:17;7.30;99.90
33815;DHT22;20121;51.910;8.406;2023-04-20T07:56:42;7.40;99.90
33815;DHT22;20121;51.910;8.406;2023-04-20T07:59:08;5.80;99.90
33815;DHT22;20121;51.910;8.406;2023-04-20T08:01:34;7.50;99.90
33815;DHT22;20121;51.910;8.406;2023-04-20T08:04:00;7.60;99.90
33815;DHT22;20121;51.910;8.406;2023-04-20T08:06:25;7.80;99.90
33815;DHT22;20121;51.910;8.406;2023-04-20T08:08:52;7.80;99.90
33815;DHT22;20121;51.910;8.406;2023-04-20T08:11:17;7.70;99.90
33815;DHT22;20121;51.910;8.406;2023-04-20T08:13:43;7.90;99.90
33815;DHT22;20121;51.910;8.406;2023-04-20T08:16:08;7.90;99.90
33815;DHT22;20121;51.910;8.406;2023-04-20T08:18:34;7.90;99.90
33815;DHT22;20121;51.910;8.406;2023-04-20T08:21:00;8.00;99.90
33815;DHT22;20121;51.910;8.406;2023-04-20T08:23:26;8.20;99.90
33815;DHT22;20121;51.910;8.406;2023-04-20T08:25:54;8.10;99.90
33815;DHT22;20121;51.910;8.406;2023-04-20T08:28:21;8.00;99.90
33815;DHT22;20121;51.910;8.406;2023-04-20T08:30:47;8.20;99.90
33815;DHT22;20121;51.910;8.406;2023-04-20T08:33:12;8.00;99.90
33815;DHT22;20121;51.910;8.406;2023-04-20T08:35:38;8.30;99.90
33815;DHT22;20121;51.910;8.406;2023-04-20T08:38:04;8.10;99.90
33815;DHT22;20121;51.910;8.406;2023-04-20T08:40:30;8.10;99.90
33815;DHT22;20121;51.910;8.406;2023-04-20T08:42:56;8.10;99.90
33815;DHT22;20121;51.910;8.406;2023-04-20T08:45:21;8.10;99.90
33815;DHT22;20121;51.910;8.406;2023-04-20T08:47:48;8.10;99.90
33815;DHT22;20121;51.910;8.406;2023-04-20T08:50:15;8.20;99.90
33815;DHT22;20121;51.910;8.406;2023-04-20T08:52:41;7.00;99.90
33815;DHT22;20121;51.910;8.406;2023-04-20T08:55:07;8.40;99.90
33815;DHT22;20121;51.910;8.406;2023-04-20T08:57:33;8.30;99.90
33815;DHT22;20121;51.910;8.406;2023-04-20T08:59:58;8.30;99.90
33815;DHT22;20121;51.910;8.406;2023-04-20T09:02:24;8.40;99.90
33815;DHT22;20121;51.910;8.406;2023-04-20T09:05:00;8.50;99.90
33815;DHT22;20121;51.910;8.406;2023-04-20T09:07:26;8.60;99.90
33815;DHT22;20121;51.910;8.406;2023-04-20T09:09:59;8.70;99.90
33815;DHT22;20121;51.910;8.406;2023-04-20T09:12:26;8.80;99.90
33815;DHT22;20121;51.910;8.406;2023-04-20T09:14:52;8.80;99.90
33815;DHT22;20121;51.910;8.406;2023-04-20T09:17:38;8.70;99.90
33815;DHT22;20121;51.910;8.406;2023-04-20T09:20:05;8.90;99.90
33815;DHT22;20121;51.910;8.406;2023-04-20T09:22:33;8.90;99.90
33815;DHT22;20121;51.910;8.406;2023-04-20T09:25:10;8.90;99.90
33815;DHT22;20121;51.910;8.406;2023-04-20T09:27:36;8.90;99.90
33815;DHT22;20121;51.910;8.406;2023-04-20T09:30:02;9.10;99.90
33815;DHT22;20121;51.910;8.406;2023-04-20T09:32:28;9.60;99.90
33815;DHT22;20121;51.910;8.406;2023-04-20T09:34:54;9.30;99.90
33815;DHT22;20121;51.910;8.406;2023-04-20T09:37:20;9.60;99.90
33815;DHT22;20121;51.910;8.406;2023-04-20T09:39:47;9.30;99.90
33815;DHT22;20121;51.910;8.406;2023-04-20T09:42:15;9.60;99.90
33815;DHT22;20121;51.910;8.406;2023-04-20T09:44:41;9.80;99.90
33815;DHT22;20121;51.910;8.406;2023-04-20T09:47:16;9.80;99.90
33815;DHT22;20121;51.910;8.406;2023-04-20T09:49:45;10.00;99.90
33815;DHT22;20121;51.910;8.406;2023-04-20T09:52:17;10.40;99.90
33815;DHT22;20121;51.910;8.406;2023-04-20T09:54:43;10.60;99.90
33815;DHT22;20121;51.910;8.406;2023-04-20T09:57:11;10.60;99.90
33815;DHT22;20121;51.910;8.406;2023-04-20T09:59:37;11.40;99.90
33815;DHT22;20121;51.910;8.406;2023-04-20T10:02:08;11.40;99.90
33815;DHT22;20121;51.910;8.406;2023-04-20T10:04:34;11.30;99.50
33815;DHT22;20121;51.910;8.406;2023-04-20T10:07:00;11.40;98.90
33815;DHT22;20121;51.910;8.406;2023-04-20T10:09:31;11.20;99.90
33815;DHT22;20121;51.910;8.406;2023-04-20T10:12:08;11.80;98.90
33815;DHT22;20121;51.910;8.406;2023-04-20T10:14:34;10.90;99.90
33815;DHT22;20121;51.910;8.406;2023-04-20T10:17:00;11.20;98.10
33815;DHT22;20121;51.910;8.406;2023-04-20T10:19:40;11.10;99.90
33815;DHT22;20121;51.910;8.406;2023-04-20T10:22:08;11.20;97.90
33815;DHT22;20121;51.910;8.406;2023-04-20T10:24:34;11.20;98.20
33815;DHT22;20121;51.910;8.406;2023-04-20T10:27:02;11.40;99.90
33815;DHT22;20121;51.910;8.406;2023-04-20T10:29:28;11.40;99.90
33815;DHT22;20121;51.910;8.406;2023-04-20T10:31:55;11.10;97.90
33815;DHT22;20121;51.910;8.406;2023-04-20T10:34:35;11.00;99.90
33815;DHT22;20121;51.910;8.406;2023-04-20T10:37:11;10.90;97.40
33815;DHT22;20121;51.910;8.406;2023-04-20T10:39:46;11.00;97.70
33815;DHT22;20121;51.910;8.406;2023-04-20T10:42:13;10.80;99.90
33815;DHT22;20121;51.910;8.406;2023-04-20T10:44:52;11.00;97.80
33815;DHT22;20121;51.910;8.406;2023-04-20T10:47:31;10.90;98.00
33815;DHT22;20121;51.910;8.406;2023-04-20T10:50:14;10.80;98.10
33815;DHT22;20121;51.910;8.406;2023-04-20T10:52:41;10.80;98.60
33815;DHT22;20121;51.910;8.406;2023-04-20T10:55:19;10.80;98.70
33815;DHT22;20121;51.910;8.406;2023-04-20T10:57:46;10.80;99.90
33815;DHT22;20121;51.910;8.406;2023-04-20T11:00:24;10.40;99.90
33815;DHT22;20121;51.910;8.406;2023-04-20T11:02:54;10.70;98.70
33815;DHT22;20121;51.910;8.406;2023-04-20T11:05:25;10.70;98.90
33815;DHT22;20121;51.910;8.406;2023-04-20T11:07:58;10.70;98.80
33815;DHT22;20121;51.910;8.406;2023-04-20T11:10:38;11.20;99.90
33815;DHT22;20121;51.910;8.406;2023-04-20T11:13:04;11.00;98.30
33815;DHT22;20121;51.910;8.406;2023-04-20T11:15:33;11.00;97.80
33815;DHT22;20121;51.910;8.406;2023-04-20T11:18:07;11.00;97.70
33815;DHT22;20121;51.910;8.406;2023-04-20T11:20:33;11.00;99.90
33815;DHT22;20121;51.910;8.406;2023-04-20T11:22:59;10.90;99.90
33815;DHT22;20121;51.910;8.406;2023-04-20T11:25:25;11.10;98.40
33815;DHT22;20121;51.910;8.406;2023-04-20T11:27:52;11.10;98.30
33815;DHT22;20121;51.910;8.406;2023-04-20T11:32:52;11.10;97.90
33815;DHT22;20121;51.910;8.406;2023-04-20T11:35:18;11.30;97.80
33815;DHT22;20121;51.910;8.406;2023-04-20T11:37:48;11.40;97.30
33815;DHT22;20121;51.910;8.406;2023-04-20T11:40:15;11.50;97.20
33815;DHT22;20121;51.910;8.406;2023-04-20T11:42:42;11.50;97.20
33815;DHT22;20121;51.910;8.406;2023-04-20T11:45:08;11.50;97.10
33815;DHT22;20121;51.910;8.406;2023-04-20T11:47:35;11.50;97.10
33815;DHT22;20121;51.910;8.406;2023-04-20T11:50:01;11.50;97.10
33815;DHT22;20121;51.910;8.406;2023-04-20T11:52:26;11.50;97.40
33815;DHT22;20121;51.910;8.406;2023-04-20T11:54:52;11.50;97.60
33815;DHT22;20121;51.910;8.406;2023-04-20T11:57:18;11.50;97.10
33815;DHT22;20121;51.910;8.406;2023-04-20T11:59:45;11.40;99.90
33815;DHT22;20121;51.910;8.406;2023-04-20T12:02:14;11.30;96.90
33815;DHT22;20121;51.910;8.406;2023-04-20T12:04:40;11.20;97.40
33815;DHT22;20121;51.910;8.406;2023-04-20T12:07:06;10.80;97.50
33815;DHT22;20121;51.910;8.406;2023-04-20T12:09:31;10.80;99.90
33815;DHT22;20121;51.910;8.406;2023-04-20T12:12:02;11.10;97.30
33815;DHT22;20121;51.910;8.406;2023-04-20T12:14:28;8.50;99.90
33815;DHT22;20121;51.910;8.406;2023-04-20T12:16:54;11.20;97.50
33815;DHT22;20121;51.910;8.406;2023-04-20T12:19:20;11.90;99.90
33815;DHT22;20121;51.910;8.406;2023-04-20T12:21:45;11.80;97.50
33815;DHT22;20121;51.910;8.406;2023-04-20T12:24:12;12.10;96.50
33815;DHT22;20121;51.910;8.406;2023-04-20T12:26:38;12.40;95.40
33815;DHT22;20121;51.910;8.406;2023-04-20T12:29:03;12.40;98.30
33815;DHT22;20121;51.910;8.406;2023-04-20T12:31:29;12.10;99.90
33815;DHT22;20121;51.910;8.406;2023-04-20T12:33:55;12.40;94.80
33815;DHT22;20121;51.910;8.406;2023-04-20T12:36:20;12.40;94.90
33815;DHT22;20121;51.910;8.406;2023-04-20T12:38:46;12.50;94.40
33815;DHT22;20121;51.910;8.406;2023-04-20T12:41:15;12.80;94.60
33815;DHT22;20121;51.910;8.406;2023-04-20T12:43:41;13.10;95.30
33815;DHT22;20121;51.910;8.406;2023-04-20T12:46:06;13.50;94.70
33815;DHT22;20121;51.910;8.406;2023-04-20T12:48:32;13.80;93.20
33815;DHT22;20121;51.910;8.406;2023-04-20T12:50:57;13.90;93.30
33815;DHT22;20121;51.910;8.406;2023-04-20T12:53:23;14.00;93.50
33815;DHT22;20121;51.910;8.406;2023-04-20T12:55:49;14.10;93.30
33815;DHT22;20121;51.910;8.406;2023-04-20T12:58:14;14.30;99.90
33815;DHT22;20121;51.910;8.406;2023-04-20T13:00:41;14.10;92.00
33815;DHT22;20121;51.910;8.406;2023-04-20T13:03:08;13.90;92.40
33815;DHT22;20121;51.910;8.406;2023-04-20T13:05:33;13.80;92.60
33815;DHT22;20121;51.910;8.406;2023-04-20T13:07:59;13.60;93.10
33815;DHT22;20121;51.910;8.406;2023-04-20T13:10:25;13.30;92.30
33815;DHT22;20121;51.910;8.406;2023-04-20T13:12:50;13.20;92.80
33815;DHT22;20121;51.910;8.406;2023-04-20T13:15:17;13.10;92.70
33815;DHT22;20121;51.910;8.406;2023-04-20T13:17:44;13.00;92.20
33815;DHT22;20121;51.910;8.406;2023-04-20T13:20:10;12.80;92.70
33815;DHT22;20121;51.910;8.406;2023-04-20T13:22:37;12.70;92.90
33815;DHT22;20121;51.910;8.406;2023-04-20T13:25:04;12.70;93.30
33815;DHT22;20121;51.910;8.406;2023-04-20T13:27:31;12.60;92.90
33815;DHT22;20121;51.910;8.406;2023-04-20T13:29:56;12.40;92.70
33815;DHT22;20121;51.910;8.406;2023-04-20T13:34:50;12.40;93.20
33815;DHT22;20121;51.910;8.406;2023-04-20T13:37:16;12.10;99.90
33815;DHT22;20121;51.910;8.406;2023-04-20T13:39:42;12.50;93.00
33815;DHT22;20121;51.910;8.406;2023-04-20T13:42:07;12.50;93.50
33815;DHT22;20121;51.910;8.406;2023-04-20T13:44:33;12.80;99.90
33815;DHT22;20121;51.910;8.406;2023-04-20T13:46:59;12.80;92.60
33815;DHT22;20121;51.910;8.406;2023-04-20T13:49:25;13.40;99.10
33815;DHT22;20121;51.910;8.406;2023-04-20T13:51:51;13.20;92.40
33815;DHT22;20121;51.910;8.406;2023-04-20T13:54:16;13.20;92.10
33815;DHT22;20121;51.910;8.406;2023-04-20T13:56:42;13.20;92.10
33815;DHT22;20121;51.910;8.406;2023-04-20T13:59:08;13.10;91.40
33815;DHT22;20121;51.910;8.406;2023-04-20T14:01:33;12.90;90.40
33815;DHT22;20121;51.910;8.406;2023-04-20T14:03:59;12.50;99.90
33815;DHT22;20121;51.910;8.406;2023-04-20T14:06:25;12.60;91.60
33815;DHT22;20121;51.910;8.406;2023-04-20T14:08:51;12.50;92.10
33815;DHT22;20121;51.910;8.406;2023-04-20T14:11:16;12.60;92.00
33815;DHT22;20121;51.910;8.406;2023-04-20T14:13:42;12.70;92.00
33815;DHT22;20121;51.910;8.406;2023-04-20T14:16:10;12.90;92.00
33815;DHT22;20121;51.910;8.406;2023-04-20T14:18:36;13.10;92.20
33815;DHT22;20121;51.910;8.406;2023-04-20T14:21:03;13.10;99.90
33815;DHT22;20121;51.910;8.406;2023-04-20T14:23:29;13.20;91.40
33815;DHT22;20121;51.910;8.406;2023-04-20T14:25:54;12.90;91.10
33815;DHT22;20121;51.910;8.406;2023-04-20T14:28:20;12.70;91.30
33815;DHT22;20121;51.910;8.406;2023-04-20T14:30:46;12.80;91.60
33815;DHT22;20121;51.910;8.406;2023-04-20T14:33:12;12.90;99.90
33815;DHT22;20121;51.910;8.406;2023-04-20T14:35:38;13.00;91.80
33815;DHT22;20121;51.910;8.406;2023-04-20T14:38:03;13.20;92.40
33815;DHT22;20121;51.910;8.406;2023-04-20T14:40:30;13.70;99.30
33815;DHT22;20121;51.910;8.406;2023-04-20T14:42:56;13.50;90.50
33815;DHT22;20121;51.910;8.406;2023-04-20T14:45:22;13.50;90.90
33815;DHT22;20121;51.910;8.406;2023-04-20T14:47:52;13.50;90.80
33815;DHT22;20121;51.910;8.406;2023-04-20T14:50:18;13.30;90.50
33815;DHT22;20121;51.910;8.406;2023-04-20T14:52:44;13.20;90.60
33815;DHT22;20121;51.910;8.406;2023-04-20T14:55:09;13.00;95.80
33815;DHT22;20121;51.910;8.406;2023-04-20T14:57:35;13.00;91.40
33815;DHT22;20121;51.910;8.406;2023-04-20T15:00:01;12.80;91.10
33815;DHT22;20121;51.910;8.406;2023-04-20T15:02:28;12.70;91.30
33815;DHT22;20121;51.910;8.406;2023-04-20T15:04:56;12.60;91.70
33815;DHT22;20121;51.910;8.406;2023-04-20T15:07:22;12.60;91.80
33815;DHT22;20121;51.910;8.406;2023-04-20T15:09:47;12.40;91.90
33815;DHT22;20121;51.910;8.406;2023-04-20T15:12:13;12.40;91.80
33815;DHT22;20121;51.910;8.406;2023-04-20T15:14:39;12.30;92.20
33815;DHT22;20121;51.910;8.406;2023-04-20T15:17:04;11.90;96.70
33815;DHT22;20121;51.910;8.406;2023-04-20T15:19:30;11.80;99.90
33815;DHT22;20121;51.910;8.406;2023-04-20T15:21:55;11.90;92.80
33815;DHT22;20121;51.910;8.406;2023-04-20T15:24:21;11.80;93.10
33815;DHT22;20121;51.910;8.406;2023-04-20T15:26:47;11.70;93.40
33815;DHT22;20121;51.910;8.406;2023-04-20T15:29:12;11.60;93.80
33815;DHT22;20121;51.910;8.406;2023-04-20T15:31:38;11.50;94.00
33815;DHT22;20121;51.910;8.406;2023-04-20T15:34:04;11.50;94.10
33815;DHT22;20121;51.910;8.406;2023-04-20T15:36:30;11.40;94.20
33815;DHT22;20121;51.910;8.406;2023-04-20T15:38:56;11.30;93.90
33815;DHT22;20121;51.910;8.406;2023-04-20T15:41:22;11.30;94.20
33815;DHT22;20121;51.910;8.406;2023-04-20T15:43:47;11.20;94.40
33815;DHT22;20121;51.910;8.406;2023-04-20T15:46:13;11.00;99.90
33815;DHT22;20121;51.910;8.406;2023-04-20T15:51:05;11.00;94.60
33815;DHT22;20121;51.910;8.406;2023-04-20T15:53:30;11.00;95.10
33815;DHT22;20121;51.910;8.406;2023-04-20T15:55:59;10.90;95.20